Time;durP1;ratioP1;P1;durP2;ratioP2;P2;SDS_P1;SDS_P2;PMS_P1;PMS_P2;Temp;Humidity;BMP_temperature;BMP_pressure;BME280_temperature;BME280_humidity;BME280_pressure;Samples;Min_cycle;Max_cycle;Signal;HPM_P1;HPM_P2
2022/07/27 00:01:08;;;;;;;0.80;0.80;;;;;;;;;;5030317;28;20432;-77
2022/07/27 00:03:34;;;;;;;3.40;1.00;;;;;;;;;;5031953;28;20443;-79
2022/07/27 00:06:00;;;;;;;4.40;1.10;;;;;;;;;;5031977;28;20431;-77
2022/07/27 00:08:26;;;;;;;2.37;1.00;;;;;;;;;;5024520;28;20442;-84
2022/07/27 00:10:52;;;;;;;9.77;1.30;;;;;;;;;;5030357;28;20427;-80
2022/07/27 00:13:18;;;;;;;5.30;0.93;;;;;;;;;;5031830;28;20435;-79
2022/07/27 00:15:44;;;;;;;3.07;1.00;;;;;;;;;;5032328;28;20938;-80
2022/07/27 00:18:11;;;;;;;1.27;1.27;;;;;;;;;;5032165;28;20434;-81
2022/07/27 00:20:38;;;;;;;2.70;1.10;;;;;;;;;;5032297;28;20427;-78
2022/07/27 00:23:04;;;;;;;0.70;0.70;;;;;;;;;;5031601;28;20427;-77
2022/07/27 00:25:30;;;;;;;0.80;0.80;;;;;;;;;;5031220;28;20453;-77
2022/07/27 00:27:56;;;;;;;0.80;0.80;;;;;;;;;;5032154;28;20431;-82
2022/07/27 00:30:23;;;;;;;2.07;0.87;;;;;;;;;;5031884;28;20443;-76
2022/07/27 00:32:48;;;;;;;0.80;0.80;;;;;;;;;;5016934;28;20537;-74
2022/07/27 00:35:15;;;;;;;0.70;0.70;;;;;;;;;;5032340;28;20427;-77
2022/07/27 00:37:41;;;;;;;1.20;1.00;;;;;;;;;;5033868;28;20423;-75
2022/07/27 00:40:07;;;;;;;1.43;0.87;;;;;;;;;;5034874;28;20437;-78
2022/07/27 00:42:33;;;;;;;0.63;0.63;;;;;;;;;;5034867;28;21501;-75
2022/07/27 00:44:59;;;;;;;0.70;0.70;;;;;;;;;;5035565;28;20426;-76
2022/07/27 00:47:26;;;;;;;1.13;1.13;;;;;;;;;;5035168;28;20435;-75
2022/07/27 00:49:52;;;;;;;0.90;0.87;;;;;;;;;;5034722;28;20430;-76
2022/07/27 00:52:18;;;;;;;0.73;0.73;;;;;;;;;;5035034;28;20518;-75
2022/07/27 00:54:46;;;;;;;0.93;0.93;;;;;;;;;;5033758;28;20565;-77
2022/07/27 00:57:13;;;;;;;2.40;1.13;;;;;;;;;;5034841;28;20731;-78
2022/07/27 00:59:39;;;;;;;0.87;0.87;;;;;;;;;;5034860;28;20423;-75
2022/07/27 01:02:05;;;;;;;0.80;0.80;;;;;;;;;;5034519;28;20443;-74
2022/07/27 01:04:31;;;;;;;1.10;1.00;;;;;;;;;;5035226;28;20930;-75
2022/07/27 01:06:57;;;;;;;0.80;0.80;;;;;;;;;;5035068;28;20797;-76
2022/07/27 01:12:11;;;;;;;1.00;1.00;;;;;;;;;;5034541;28;20473;-80
2022/07/27 01:14:38;;;;;;;0.60;0.60;;;;;;;;;;5035047;28;20518;-79
2022/07/27 01:17:04;;;;;;;0.90;0.90;;;;;;;;;;5033610;28;20423;-75
2022/07/27 01:19:30;;;;;;;0.97;0.73;;;;;;;;;;5034810;28;20431;-76
2022/07/27 01:21:56;;;;;;;5.93;1.07;;;;;;;;;;5033441;28;20438;-75
2022/07/27 01:24:22;;;;;;;2.70;0.80;;;;;;;;;;5034744;28;20184;-75
2022/07/27 01:26:48;;;;;;;0.87;0.87;;;;;;;;;;5034699;28;20493;-79
2022/07/27 01:29:14;;;;;;;3.37;0.97;;;;;;;;;;5034699;28;20435;-76
2022/07/27 01:31:40;;;;;;;1.37;1.27;;;;;;;;;;5033220;28;20471;-74
2022/07/27 01:34:06;;;;;;;1.20;1.20;;;;;;;;;;5033992;28;20450;-77
2022/07/27 01:36:32;;;;;;;1.07;1.07;;;;;;;;;;5034850;28;20411;-74
2022/07/27 01:38:58;;;;;;;0.80;0.80;;;;;;;;;;5034191;28;20502;-80
2022/07/27 01:41:24;;;;;;;1.63;1.00;;;;;;;;;;5033998;28;20180;-79
2022/07/27 01:43:50;;;;;;;1.30;1.30;;;;;;;;;;5033999;28;20442;-76
2022/07/27 01:46:16;;;;;;;1.80;1.17;;;;;;;;;;5034468;28;20570;-77
2022/07/27 01:48:42;;;;;;;2.93;0.90;;;;;;;;;;5033374;28;20850;-76
2022/07/27 01:51:08;;;;;;;5.50;1.07;;;;;;;;;;5033997;28;20522;-78
2022/07/27 01:53:34;;;;;;;1.30;1.30;;;;;;;;;;5033496;28;20536;-75
2022/07/27 01:56:00;;;;;;;0.80;0.80;;;;;;;;;;5033106;28;20888;-74
2022/07/27 01:58:26;;;;;;;6.23;1.00;;;;;;;;;;5033330;28;20698;-75
2022/07/27 02:00:52;;;;;;;1.10;1.10;;;;;;;;;;5034185;28;20435;-76
2022/07/27 02:03:18;;;;;;;0.80;0.80;;;;;;;;;;5033216;28;20223;-75
2022/07/27 02:05:44;;;;;;;6.63;1.13;;;;;;;;;;5032968;28;20439;-75
2022/07/27 02:08:10;;;;;;;1.33;1.07;;;;;;;;;;5032469;28;21007;-75
2022/07/27 02:12:34;;;;;;;1.13;1.13;;;;;;;;;;5033275;28;20424;-75
2022/07/27 02:13:22;;;;;;;1.00;1.00;;;;;;;;;;5033192;28;20493;-74
2022/07/27 02:15:48;;;;;;;0.90;0.90;;;;;;;;;;5033902;28;20838;-75
2022/07/27 02:18:14;;;;;;;2.17;1.00;;;;;;;;;;5033651;28;20430;-76
2022/07/27 02:20:41;;;;;;;0.93;0.93;;;;;;;;;;5033887;28;20415;-77
2022/07/27 02:23:07;;;;;;;2.80;2.60;;;;;;;;;;5033154;28;20319;-80
2022/07/27 02:25:34;;;;;;;2.63;2.00;;;;;;;;;;5033372;28;20426;-78
2022/07/27 02:28:00;;;;;;;2.27;2.10;;;;;;;;;;5033608;28;20506;-76
2022/07/27 02:30:26;;;;;;;1.00;1.00;;;;;;;;;;5033501;28;20435;-77
2022/07/27 02:32:52;;;;;;;1.17;1.10;;;;;;;;;;5033013;28;20482;-76
2022/07/27 02:35:19;;;;;;;0.77;0.73;;;;;;;;;;5033049;28;20427;-80
2022/07/27 02:37:45;;;;;;;1.10;1.10;;;;;;;;;;5031869;28;20254;-77
2022/07/27 02:40:11;;;;;;;1.83;1.03;;;;;;;;;;5033117;28;20416;-75
2022/07/27 02:42:37;;;;;;;1.03;1.03;;;;;;;;;;5032758;28;20437;-75
2022/07/27 02:45:04;;;;;;;2.33;1.40;;;;;;;;;;5033000;28;20834;-76
2022/07/27 02:47:30;;;;;;;1.63;1.30;;;;;;;;;;5032018;28;20424;-76
2022/07/27 02:49:56;;;;;;;1.70;1.60;;;;;;;;;;5032928;28;20505;-74
2022/07/27 02:52:21;;;;;;;1.20;1.03;;;;;;;;;;5032452;28;20218;-77
2022/07/27 02:54:47;;;;;;;3.37;1.27;;;;;;;;;;5032274;28;20251;-74
2022/07/27 02:57:13;;;;;;;1.70;1.70;;;;;;;;;;5032932;28;20420;-74
2022/07/27 02:59:39;;;;;;;1.40;1.40;;;;;;;;;;5031415;28;20790;-74
2022/07/27 03:02:05;;;;;;;2.53;1.67;;;;;;;;;;5031007;28;20446;-74
2022/07/27 03:04:31;;;;;;;1.90;1.90;;;;;;;;;;5032939;28;20530;-77
2022/07/27 03:06:57;;;;;;;4.57;1.90;;;;;;;;;;5032356;28;20435;-75
2022/07/27 03:09:23;;;;;;;1.10;1.10;;;;;;;;;;5032620;28;20458;-76
2022/07/27 03:11:49;;;;;;;3.50;1.40;;;;;;;;;;5033010;28;20751;-77
2022/07/27 03:14:15;;;;;;;0.90;0.90;;;;;;;;;;5032196;28;20219;-79
2022/07/27 03:16:41;;;;;;;1.73;1.30;;;;;;;;;;5032470;28;20431;-78
2022/07/27 03:19:07;;;;;;;0.97;0.97;;;;;;;;;;5032436;28;20219;-78
2022/07/27 03:21:33;;;;;;;1.27;1.27;;;;;;;;;;5032737;28;20431;-78
2022/07/27 03:23:59;;;;;;;1.30;1.30;;;;;;;;;;5031997;28;20430;-76
2022/07/27 03:26:25;;;;;;;1.67;1.53;;;;;;;;;;5032483;28;20246;-79
2022/07/27 03:28:51;;;;;;;1.40;1.40;;;;;;;;;;5032613;28;20473;-77
2022/07/27 03:31:17;;;;;;;5.53;1.90;;;;;;;;;;5032588;28;20446;-78
2022/07/27 03:33:43;;;;;;;1.53;1.43;;;;;;;;;;5032346;28;20423;-79
2022/07/27 03:36:09;;;;;;;12.13;1.90;;;;;;;;;;5032696;28;20895;-78
2022/07/27 03:38:35;;;;;;;0.90;0.90;;;;;;;;;;5032179;28;20829;-82
2022/07/27 03:41:01;;;;;;;2.13;1.30;;;;;;;;;;5032075;28;20423;-76
2022/07/27 03:43:27;;;;;;;1.00;1.00;;;;;;;;;;5031739;28;20439;-81
2022/07/27 03:45:53;;;;;;;1.30;1.30;;;;;;;;;;5032343;28;20522;-79
2022/07/27 03:48:19;;;;;;;1.40;1.30;;;;;;;;;;5032189;28;20436;-77
2022/07/27 03:50:45;;;;;;;1.30;1.20;;;;;;;;;;5032563;28;20458;-83
2022/07/27 03:53:11;;;;;;;7.50;1.53;;;;;;;;;;5031683;28;20495;-83
2022/07/27 03:55:37;;;;;;;1.43;1.10;;;;;;;;;;5032023;28;20521;-78
2022/07/27 03:58:02;;;;;;;1.40;1.30;;;;;;;;;;5032047;28;20446;-77
2022/07/27 04:00:28;;;;;;;1.30;1.07;;;;;;;;;;5032295;28;20184;-80
2022/07/27 04:02:54;;;;;;;1.17;1.10;;;;;;;;;;5031687;28;21038;-77
2022/07/27 04:05:20;;;;;;;3.53;1.43;;;;;;;;;;5032411;28;20431;-80
2022/07/27 04:07:47;;;;;;;2.50;2.00;;;;;;;;;;5031152;28;20287;-83
2022/07/27 04:10:13;;;;;;;0.90;0.90;;;;;;;;;;5030599;28;20525;-82
2022/07/27 04:12:39;;;;;;;2.10;1.50;;;;;;;;;;5035380;28;20485;-83
2022/07/27 04:15:06;;;;;;;4.60;1.43;;;;;;;;;;5035979;28;20423;-83
2022/07/27 04:17:32;;;;;;;8.10;1.60;;;;;;;;;;5034572;28;20435;-83
2022/07/27 04:19:58;;;;;;;4.90;1.30;;;;;;;;;;5036189;28;20415;-82
2022/07/27 04:22:24;;;;;;;1.20;0.93;;;;;;;;;;5035630;28;20469;-83
2022/07/27 04:24:50;;;;;;;1.00;0.90;;;;;;;;;;5035390;28;20439;-80
2022/07/27 04:27:16;;;;;;;1.50;1.20;;;;;;;;;;5035753;28;20435;-78
2022/07/27 04:29:42;;;;;;;1.73;1.43;;;;;;;;;;5036125;28;20594;-78
2022/07/27 04:32:08;;;;;;;2.57;1.27;;;;;;;;;;5035325;28;20903;-76
2022/07/27 04:34:34;;;;;;;2.77;1.50;;;;;;;;;;5034433;28;20454;-78
2022/07/27 04:37:00;;;;;;;1.20;1.10;;;;;;;;;;5035050;28;20418;-80
2022/07/27 04:39:26;;;;;;;1.50;1.50;;;;;;;;;;5035092;28;20474;-78
2022/07/27 04:41:52;;;;;;;5.20;1.10;;;;;;;;;;5035457;28;20191;-77
2022/07/27 04:44:18;;;;;;;1.23;1.23;;;;;;;;;;5035208;28;20431;-81
2022/07/27 04:46:44;;;;;;;3.33;1.70;;;;;;;;;;5034195;28;20326;-77
2022/07/27 04:49:10;;;;;;;1.20;1.20;;;;;;;;;;5034455;28;20230;-79
2022/07/27 04:51:36;;;;;;;3.00;2.73;;;;;;;;;;5034987;28;20230;-78
2022/07/27 04:54:02;;;;;;;1.53;1.43;;;;;;;;;;5034290;28;21054;-76
2022/07/27 04:56:28;;;;;;;1.37;1.37;;;;;;;;;;5035480;28;20523;-84
2022/07/27 04:58:54;;;;;;;1.97;1.40;;;;;;;;;;5035438;28;20518;-85
2022/07/27 05:01:21;;;;;;;1.70;1.50;;;;;;;;;;5035331;28;20419;-84
2022/07/27 05:03:47;;;;;;;2.87;1.57;;;;;;;;;;5033382;28;20470;-82
2022/07/27 05:06:13;;;;;;;1.43;1.43;;;;;;;;;;5035175;28;20463;-83
2022/07/27 05:08:39;;;;;;;1.20;1.10;;;;;;;;;;5035003;28;20227;-79
2022/07/27 05:11:05;;;;;;;2.13;1.60;;;;;;;;;;5035075;28;20415;-79
2022/07/27 05:13:31;;;;;;;1.37;1.23;;;;;;;;;;5034583;28;20927;-82
2022/07/27 05:15:57;;;;;;;3.60;1.47;;;;;;;;;;5034912;28;20439;-80
2022/07/27 05:18:24;;;;;;;1.50;1.50;;;;;;;;;;5035269;28;20267;-80
2022/07/27 05:20:50;;;;;;;1.00;1.00;;;;;;;;;;5034612;28;20462;-81
2022/07/27 05:23:16;;;;;;;4.13;1.10;;;;;;;;;;5033400;28;20451;-81
2022/07/27 05:25:42;;;;;;;2.13;1.40;;;;;;;;;;5034607;28;20499;-80
2022/07/27 05:28:08;;;;;;;1.73;1.27;;;;;;;;;;5034821;28;20469;-84
2022/07/27 05:30:34;;;;;;;1.23;1.13;;;;;;;;;;5034748;28;20859;-82
2022/07/27 05:33:00;;;;;;;7.83;1.50;;;;;;;;;;5033827;28;20611;-83
2022/07/27 05:35:26;;;;;;;1.93;1.60;;;;;;;;;;5034692;28;20545;-82
2022/07/27 05:37:52;;;;;;;1.53;1.30;;;;;;;;;;5033301;28;20434;-81
2022/07/27 05:40:17;;;;;;;4.30;1.90;;;;;;;;;;5034297;28;20915;-81
2022/07/27 05:42:43;;;;;;;2.17;1.40;;;;;;;;;;5034317;28;20645;-81
2022/07/27 05:45:10;;;;;;;1.47;1.37;;;;;;;;;;5034289;28;20424;-80
2022/07/27 05:47:37;;;;;;;1.67;1.57;;;;;;;;;;5034680;28;20514;-79
2022/07/27 05:50:03;;;;;;;1.00;1.00;;;;;;;;;;5030467;28;21009;-73
2022/07/27 05:52:29;;;;;;;1.10;1.10;;;;;;;;;;5031853;28;20487;-73
2022/07/27 05:54:55;;;;;;;1.20;1.20;;;;;;;;;;5033134;28;20470;-73
2022/07/27 05:57:21;;;;;;;1.20;1.20;;;;;;;;;;5033973;28;20423;-73
2022/07/27 05:59:47;;;;;;;6.70;1.40;;;;;;;;;;5033168;28;20434;-73
2022/07/27 06:02:13;;;;;;;1.50;1.40;;;;;;;;;;5033524;28;20194;-73
2022/07/27 06:04:38;;;;;;;1.63;1.13;;;;;;;;;;5033921;28;20184;-74
2022/07/27 06:09:49;;;;;;;2.47;2.27;;;;;;;;;;4974490;28;20723;-73
2022/07/27 06:12:15;;;;;;;1.63;1.53;;;;;;;;;;4974541;28;20526;-73
2022/07/27 06:14:41;;;;;;;1.70;1.60;;;;;;;;;;4975071;28;20800;-73
2022/07/27 06:17:08;;;;;;;2.00;1.90;;;;;;;;;;4974886;28;20182;-73
2022/07/27 06:19:38;;;;;;;1.70;1.10;;;;;;;;;;4975040;28;20425;-74
2022/07/27 06:22:04;;;;;;;1.57;1.47;;;;;;;;;;4974466;28;20581;-73
2022/07/27 06:24:30;;;;;;;1.63;1.50;;;;;;;;;;4974457;28;20516;-74
2022/07/27 06:26:56;;;;;;;5.80;1.53;;;;;;;;;;4974579;28;20191;-73
2022/07/27 06:29:22;;;;;;;1.20;1.13;;;;;;;;;;4974832;28;20178;-73
2022/07/27 06:31:47;;;;;;;1.93;1.83;;;;;;;;;;4974448;28;20206;-74
2022/07/27 06:34:13;;;;;;;3.27;1.80;;;;;;;;;;4974232;28;20524;-73
2022/07/27 06:36:41;;;;;;;2.00;1.90;;;;;;;;;;4974364;28;20419;-73
2022/07/27 06:39:07;;;;;;;8.80;2.40;;;;;;;;;;4974311;28;20434;-73
2022/07/27 06:41:33;;;;;;;7.70;1.93;;;;;;;;;;4974601;28;20430;-73
2022/07/27 06:43:59;;;;;;;1.50;1.07;;;;;;;;;;4974231;28;20429;-73
2022/07/27 06:46:25;;;;;;;1.60;1.50;;;;;;;;;;4974021;28;20562;-74
2022/07/27 06:48:52;;;;;;;6.33;1.73;;;;;;;;;;4989202;28;20521;-73
2022/07/27 06:51:18;;;;;;;2.33;1.90;;;;;;;;;;4973947;28;20914;-73
2022/07/27 06:53:44;;;;;;;1.67;1.67;;;;;;;;;;4973310;28;20606;-74
2022/07/27 06:56:10;;;;;;;1.40;1.40;;;;;;;;;;4974523;28;20911;-73
2022/07/27 06:58:39;;;;;;;1.50;1.40;;;;;;;;;;4973961;28;20517;-73
2022/07/27 07:01:05;;;;;;;1.70;1.60;;;;;;;;;;4987767;28;20434;-73
2022/07/27 07:03:31;;;;;;;1.80;1.70;;;;;;;;;;4973744;28;20418;-73
2022/07/27 07:05:57;;;;;;;2.30;1.50;;;;;;;;;;4974525;28;20268;-73
2022/07/27 07:08:23;;;;;;;3.13;1.67;;;;;;;;;;4973550;28;20915;-73
2022/07/27 07:10:49;;;;;;;3.03;1.90;;;;;;;;;;4987278;28;20434;-73
2022/07/27 07:13:15;;;;;;;2.30;1.77;;;;;;;;;;4988536;28;20918;-73
2022/07/27 07:15:42;;;;;;;1.80;1.40;;;;;;;;;;4974086;28;20444;-73
2022/07/27 07:18:09;;;;;;;1.73;1.63;;;;;;;;;;4974168;28;20488;-73
2022/07/27 07:20:35;;;;;;;1.57;1.50;;;;;;;;;;4973905;28;20412;-73
2022/07/27 07:23:01;;;;;;;2.03;1.83;;;;;;;;;;4973691;28;20430;-74
2022/07/27 07:25:27;;;;;;;2.60;2.10;;;;;;;;;;4979394;28;20464;-74
2022/07/27 07:27:54;;;;;;;8.30;2.00;;;;;;;;;;4993437;28;20511;-74
2022/07/27 07:30:22;;;;;;;1.70;1.57;;;;;;;;;;4993029;28;20413;-74
2022/07/27 07:32:48;;;;;;;2.00;1.80;;;;;;;;;;4993151;28;20500;-74
2022/07/27 07:35:15;;;;;;;3.40;1.90;;;;;;;;;;4985348;28;20426;-73
2022/07/27 07:37:41;;;;;;;4.20;2.83;;;;;;;;;;4972920;28;20430;-74
2022/07/27 07:40:09;;;;;;;2.50;2.20;;;;;;;;;;4972522;28;20757;-73
2022/07/27 07:42:48;;;;;;;6.00;2.30;;;;;;;;;;4988298;28;20791;-73
2022/07/27 07:45:15;;;;;;;4.10;1.70;;;;;;;;;;4973588;28;20461;-73
2022/07/27 07:47:40;;;;;;;4.13;1.80;;;;;;;;;;4993050;28;21017;-73
2022/07/27 07:50:07;;;;;;;3.00;1.70;;;;;;;;;;4977771;28;20529;-73
2022/07/27 07:52:33;;;;;;;2.33;1.60;;;;;;;;;;4977575;28;20845;-73
2022/07/27 07:54:58;;;;;;;15.10;2.10;;;;;;;;;;4976946;28;21005;-74
2022/07/27 07:57:24;;;;;;;6.37;3.93;;;;;;;;;;4977683;28;20826;-78
2022/07/27 07:59:50;;;;;;;1.90;1.90;;;;;;;;;;4977792;28;20422;-74
2022/07/27 08:02:16;;;;;;;1.73;1.70;;;;;;;;;;4992193;28;20462;-73
2022/07/27 08:04:42;;;;;;;5.03;2.50;;;;;;;;;;4977394;28;20426;-73
2022/07/27 08:07:08;;;;;;;1.70;1.60;;;;;;;;;;4977573;28;20444;-73
2022/07/27 08:09:34;;;;;;;2.00;1.90;;;;;;;;;;4977219;28;20432;-74
2022/07/27 08:12:00;;;;;;;2.97;2.07;;;;;;;;;;4976488;28;20485;-73
2022/07/27 08:14:26;;;;;;;3.77;2.17;;;;;;;;;;4977494;28;20778;-73
2022/07/27 08:16:52;;;;;;;1.57;1.47;;;;;;;;;;4976133;28;20434;-73
2022/07/27 08:19:18;;;;;;;1.53;1.53;;;;;;;;;;4976185;28;20424;-73
2022/07/27 08:21:44;;;;;;;2.03;1.60;;;;;;;;;;4977020;28;20520;-74
2022/07/27 08:24:10;;;;;;;2.33;2.10;;;;;;;;;;4976769;28;20894;-73
2022/07/27 08:26:36;;;;;;;3.03;2.00;;;;;;;;;;4977409;28;20179;-74
2022/07/27 08:29:02;;;;;;;9.00;1.90;;;;;;;;;;4977284;28;20418;-74
2022/07/27 08:31:28;;;;;;;3.20;1.90;;;;;;;;;;4975454;28;20446;-74
2022/07/27 08:33:54;;;;;;;7.23;2.50;;;;;;;;;;4976561;28;20518;-73
2022/07/27 08:36:20;;;;;;;2.40;1.97;;;;;;;;;;4985313;28;20491;-74
2022/07/27 08:38:46;;;;;;;2.10;1.90;;;;;;;;;;4986280;28;20430;-75
2022/07/27 08:41:13;;;;;;;10.00;1.97;;;;;;;;;;4968500;28;20476;-74
2022/07/27 08:43:41;;;;;;;3.30;1.50;;;;;;;;;;4968048;28;20548;-74
2022/07/27 08:46:09;;;;;;;5.27;2.10;;;;;;;;;;4976633;28;20422;-74
2022/07/27 08:48:38;;;;;;;4.67;1.67;;;;;;;;;;4976237;28;20790;-74
2022/07/27 08:51:04;;;;;;;12.27;2.33;;;;;;;;;;4975499;28;20843;-73
2022/07/27 08:53:33;;;;;;;9.80;2.40;;;;;;;;;;4975169;28;20504;-73
2022/07/27 08:55:59;;;;;;;9.80;2.10;;;;;;;;;;4976606;28;20418;-76
2022/07/27 08:58:25;;;;;;;2.53;2.00;;;;;;;;;;4975867;28;20446;-74
2022/07/27 09:00:52;;;;;;;2.47;1.70;;;;;;;;;;4975795;28;20434;-78
2022/07/27 09:03:20;;;;;;;14.93;1.90;;;;;;;;;;4990746;28;20812;-78
2022/07/27 09:05:57;;;;;;;1.70;1.60;;;;;;;;;;4974829;28;20444;-73
2022/07/27 09:08:24;;;;;;;1.63;1.63;;;;;;;;;;4976044;28;20501;-74
2022/07/27 09:10:51;;;;;;;1.60;1.60;;;;;;;;;;4975024;28;20434;-74
2022/07/27 09:13:20;;;;;;;2.40;1.87;;;;;;;;;;4975616;28;20850;-73
2022/07/27 09:15:47;;;;;;;2.00;1.90;;;;;;;;;;4974671;28;20501;-74
2022/07/27 09:18:21;;;;;;;5.07;2.40;;;;;;;;;;4975874;28;20442;-73
2022/07/27 09:21:06;;;;;;;1.80;1.70;;;;;;;;;;4975165;28;20428;-74
2022/07/27 09:23:32;;;;;;;3.80;2.60;;;;;;;;;;4973091;28;20861;-77
2022/07/27 09:26:17;;;;;;;7.20;2.30;;;;;;;;;;4975595;28;20457;-83
2022/07/27 09:28:43;;;;;;;3.40;1.50;;;;;;;;;;4975853;28;20422;-75
2022/07/27 09:31:10;;;;;;;3.50;2.23;;;;;;;;;;4975784;28;20898;-81
2022/07/27 09:33:49;;;;;;;8.23;2.27;;;;;;;;;;4975434;28;20548;-74
2022/07/27 09:36:16;;;;;;;1.97;1.87;;;;;;;;;;4973075;28;20438;-82
2022/07/27 09:39:05;;;;;;;5.30;2.50;;;;;;;;;;4975557;28;21169;-83
2022/07/27 09:42:01;;;;;;;2.50;2.40;;;;;;;;;;4983002;28;20877;-77
2022/07/27 09:44:40;;;;;;;10.77;1.80;;;;;;;;;;4974663;28;20422;-78
2022/07/27 09:47:25;;;;;;;3.67;2.20;;;;;;;;;;4975190;28;20457;-81
2022/07/27 09:49:51;;;;;;;1.80;1.80;;;;;;;;;;4975729;28;20457;-79
2022/07/27 09:52:24;;;;;;;2.53;2.10;;;;;;;;;;4974648;28;20478;-79
2022/07/27 09:54:50;;;;;;;3.43;2.30;;;;;;;;;;4975014;28;20477;-75
2022/07/27 09:57:17;;;;;;;1.97;1.87;;;;;;;;;;4975205;28;20415;-77
2022/07/27 09:59:43;;;;;;;4.40;2.13;;;;;;;;;;4975185;28;20430;-76
2022/07/27 10:02:12;;;;;;;12.43;2.47;;;;;;;;;;4972303;28;20517;-79
2022/07/27 10:04:38;;;;;;;1.70;1.60;;;;;;;;;;4974657;28;20470;-78
2022/07/27 10:07:04;;;;;;;4.33;2.53;;;;;;;;;;4974350;28;20406;-79
2022/07/27 10:09:30;;;;;;;5.93;2.43;;;;;;;;;;4974019;28;20576;-75
2022/07/27 10:11:57;;;;;;;3.03;2.00;;;;;;;;;;4974284;28;20994;-81
2022/07/27 10:14:24;;;;;;;1.40;1.30;;;;;;;;;;4974945;28;20434;-80
2022/07/27 10:16:51;;;;;;;1.70;1.70;;;;;;;;;;4975331;28;20857;-83
2022/07/27 10:19:23;;;;;;;3.50;2.53;;;;;;;;;;4974540;28;20444;-82
2022/07/27 10:21:49;;;;;;;4.33;2.30;;;;;;;;;;4974779;28;20497;-84
2022/07/27 10:24:27;;;;;;;2.60;1.60;;;;;;;;;;4973083;28;20506;-79
2022/07/27 10:26:53;;;;;;;3.27;1.77;;;;;;;;;;4975167;28;20221;-76
2022/07/27 10:29:20;;;;;;;2.17;2.07;;;;;;;;;;4975027;28;20579;-77
2022/07/27 10:31:52;;;;;;;2.13;1.97;;;;;;;;;;4974570;28;20524;-80
2022/07/27 10:34:32;;;;;;;1.90;1.60;;;;;;;;;;4972907;28;20869;-74
2022/07/27 10:37:06;;;;;;;2.10;1.73;;;;;;;;;;4955659;28;20429;-78
2022/07/27 10:39:34;;;;;;;7.10;1.80;;;;;;;;;;4955351;28;20422;-80
2022/07/27 10:42:20;;;;;;;1.90;1.90;;;;;;;;;;4969968;28;20906;-76
2022/07/27 10:44:52;;;;;;;1.60;1.60;;;;;;;;;;4974327;28;21073;-77
2022/07/27 10:47:27;;;;;;;2.10;2.00;;;;;;;;;;4989690;28;20426;-79
2022/07/27 10:50:13;;;;;;;2.50;1.67;;;;;;;;;;4974796;28;20429;-81
2022/07/27 10:52:40;;;;;;;4.30;1.40;;;;;;;;;;4973815;28;20486;-75
2022/07/27 10:55:07;;;;;;;2.30;2.10;;;;;;;;;;4973857;28;21010;-79
2022/07/27 10:57:37;;;;;;;12.43;1.87;;;;;;;;;;4974556;28;20422;-74
2022/07/27 11:00:08;;;;;;;8.53;1.90;;;;;;;;;;4974516;28;20925;-75
2022/07/27 11:02:41;;;;;;;1.90;1.80;;;;;;;;;;4972932;28;20449;-74
2022/07/27 11:05:07;;;;;;;2.50;1.33;;;;;;;;;;4974196;28;20921;-82
2022/07/27 11:07:33;;;;;;;2.50;1.30;;;;;;;;;;4974026;28;20951;-79
2022/07/27 11:10:00;;;;;;;1.00;1.00;;;;;;;;;;4974379;28;20801;-78
2022/07/27 11:12:30;;;;;;;3.30;1.53;;;;;;;;;;4973909;28;20492;-77
2022/07/27 11:14:56;;;;;;;2.40;1.53;;;;;;;;;;4973967;28;20492;-75
2022/07/27 11:17:24;;;;;;;1.83;1.73;;;;;;;;;;4974360;28;20424;-80
2022/07/27 11:19:53;;;;;;;1.07;1.07;;;;;;;;;;4974220;28;20426;-78
2022/07/27 11:22:31;;;;;;;1.43;1.37;;;;;;;;;;4973958;28;20453;-74
2022/07/27 11:24:58;;;;;;;7.20;1.43;;;;;;;;;;4973269;28;20979;-79
2022/07/27 11:27:24;;;;;;;1.77;1.30;;;;;;;;;;4973867;28;20430;-82
2022/07/27 11:29:50;;;;;;;2.83;2.73;;;;;;;;;;4989134;28;20419;-78
2022/07/27 11:32:19;;;;;;;1.20;1.20;;;;;;;;;;4973687;28;20461;-77
2022/07/27 11:34:45;;;;;;;1.70;1.60;;;;;;;;;;4973307;28;20434;-75
2022/07/27 11:37:13;;;;;;;15.17;1.77;;;;;;;;;;4972539;28;20469;-76
2022/07/27 11:39:38;;;;;;;3.00;1.20;;;;;;;;;;4973725;28;20771;-79
2022/07/27 11:42:05;;;;;;;4.63;1.50;;;;;;;;;;4973529;28;20440;-78
2022/07/27 11:44:31;;;;;;;1.20;1.20;;;;;;;;;;4972761;28;20947;-75
2022/07/27 11:46:57;;;;;;;4.30;1.60;;;;;;;;;;4973308;28;20440;-77
2022/07/27 11:49:27;;;;;;;6.13;1.73;;;;;;;;;;4973583;28;20429;-80
2022/07/27 11:51:53;;;;;;;7.13;0.90;;;;;;;;;;4988407;28;20477;-74
2022/07/27 11:54:20;;;;;;;2.30;1.00;;;;;;;;;;4972649;28;20492;-75
2022/07/27 11:56:48;;;;;;;0.80;0.80;;;;;;;;;;4972644;28;20437;-76
2022/07/27 11:59:14;;;;;;;1.47;1.20;;;;;;;;;;4972845;28;20421;-76
2022/07/27 12:01:40;;;;;;;1.23;1.23;;;;;;;;;;4972832;28;20441;-75
2022/07/27 12:04:06;;;;;;;1.33;1.33;;;;;;;;;;4972060;28;20430;-78
2022/07/27 12:06:33;;;;;;;1.10;1.10;;;;;;;;;;4971412;28;20532;-79
2022/07/27 12:09:03;;;;;;;5.30;1.60;;;;;;;;;;4972905;28;20430;-81
2022/07/27 12:11:45;;;;;;;5.53;1.83;;;;;;;;;;4973837;28;20426;-81
2022/07/27 12:14:14;;;;;;;1.93;1.63;;;;;;;;;;4973328;28;20418;-76
2022/07/27 12:16:40;;;;;;;2.20;1.63;;;;;;;;;;4973439;28;20430;-78
2022/07/27 12:19:07;;;;;;;1.37;1.27;;;;;;;;;;4986593;28;20433;-77
2022/07/27 12:21:34;;;;;;;3.53;1.37;;;;;;;;;;4973178;28;20437;-78
2022/07/27 12:24:00;;;;;;;2.73;1.00;;;;;;;;;;4972968;28;20414;-80
2022/07/27 12:26:26;;;;;;;1.40;1.30;;;;;;;;;;4972460;28;20444;-78
2022/07/27 12:29:04;;;;;;;2.00;1.13;;;;;;;;;;4972631;28;20437;-76
2022/07/27 12:31:31;;;;;;;1.97;1.10;;;;;;;;;;4971617;28;20477;-75
2022/07/27 12:33:57;;;;;;;1.53;1.03;;;;;;;;;;4976579;28;20888;-81
2022/07/27 12:36:26;;;;;;;1.17;1.17;;;;;;;;;;4976192;28;20766;-77
2022/07/27 12:38:52;;;;;;;4.47;1.27;;;;;;;;;;4976507;28;20418;-80
2022/07/27 12:41:36;;;;;;;1.70;1.50;;;;;;;;;;4976591;28;20425;-81
2022/07/27 12:44:14;;;;;;;1.98;1.30;;;;;;;;;;4974810;28;20415;-80
2022/07/27 12:47:39;;;;;;;1.20;1.20;;;;;;;;;;4975874;28;20516;-79
2022/07/27 12:50:07;;;;;;;3.97;1.47;;;;;;;;;;4976151;28;20944;-81
2022/07/27 12:52:34;;;;;;;1.07;1.07;;;;;;;;;;4976110;28;20566;-76
2022/07/27 12:55:00;;;;;;;1.27;1.27;;;;;;;;;;4976270;28;20969;-76
2022/07/27 12:57:26;;;;;;;3.07;1.63;;;;;;;;;;4976686;28;20418;-74
2022/07/27 12:59:52;;;;;;;8.50;1.67;;;;;;;;;;4974218;28;20438;-78
2022/07/27 13:02:18;;;;;;;1.87;1.87;;;;;;;;;;4972458;28;20440;-75
2022/07/27 13:04:44;;;;;;;1.27;1.27;;;;;;;;;;4976367;28;20926;-77
2022/07/27 13:07:10;;;;;;;2.30;1.83;;;;;;;;;;4975044;28;20414;-77
2022/07/27 13:09:37;;;;;;;1.23;1.23;;;;;;;;;;4975893;28;20747;-76
2022/07/27 13:12:03;;;;;;;3.60;0.97;;;;;;;;;;4975291;28;20504;-82
2022/07/27 13:14:29;;;;;;;4.17;1.33;;;;;;;;;;4976506;28;20903;-80
2022/07/27 13:16:55;;;;;;;1.20;1.10;;;;;;;;;;4975909;28;20584;-77
2022/07/27 13:19:21;;;;;;;2.00;1.63;;;;;;;;;;4976456;28;20505;-81
2022/07/27 13:21:48;;;;;;;3.03;1.10;;;;;;;;;;4975579;28;20437;-81
2022/07/27 13:24:14;;;;;;;12.77;1.43;;;;;;;;;;4974475;28;20434;-80
2022/07/27 13:26:40;;;;;;;2.67;1.50;;;;;;;;;;4975993;28;20474;-75
2022/07/27 13:29:06;;;;;;;1.30;1.17;;;;;;;;;;4976225;28;20440;-77
2022/07/27 13:31:32;;;;;;;1.90;1.47;;;;;;;;;;4975677;28;20437;-82
2022/07/27 13:33:59;;;;;;;0.90;0.90;;;;;;;;;;4975688;28;20414;-80
2022/07/27 13:36:25;;;;;;;8.37;1.60;;;;;;;;;;4975809;28;20974;-77
2022/07/27 13:38:51;;;;;;;1.53;1.40;;;;;;;;;;4974990;28;20469;-80
2022/07/27 13:41:17;;;;;;;2.30;1.47;;;;;;;;;;4975324;28;20496;-81
2022/07/27 13:43:43;;;;;;;6.90;1.23;;;;;;;;;;4974548;28;20426;-79
2022/07/27 13:46:09;;;;;;;1.20;1.20;;;;;;;;;;4975716;28;20793;-79
2022/07/27 13:48:35;;;;;;;2.00;1.20;;;;;;;;;;4990799;28;20433;-78
2022/07/27 13:51:02;;;;;;;1.37;1.27;;;;;;;;;;4975850;28;20422;-80
2022/07/27 13:53:28;;;;;;;2.87;1.10;;;;;;;;;;4973884;28;20986;-75
2022/07/27 13:55:55;;;;;;;2.53;1.00;;;;;;;;;;4975720;28;20458;-82
2022/07/27 13:58:22;;;;;;;1.33;1.33;;;;;;;;;;4975522;28;20918;-81
2022/07/27 14:00:49;;;;;;;2.87;1.13;;;;;;;;;;4975260;28;20438;-79
2022/07/27 14:03:15;;;;;;;1.20;1.20;;;;;;;;;;4974665;28;20488;-80
2022/07/27 14:05:41;;;;;;;1.77;1.20;;;;;;;;;;4975141;28;20442;-79
2022/07/27 14:08:07;;;;;;;1.70;1.10;;;;;;;;;;4974990;28;20430;-77
2022/07/27 14:10:40;;;;;;;1.77;1.57;;;;;;;;;;4974888;28;20437;-80
2022/07/27 14:13:11;;;;;;;1.20;1.20;;;;;;;;;;4974687;28;20486;-79
2022/07/27 14:15:38;;;;;;;2.50;1.30;;;;;;;;;;4975468;28;20550;-79
2022/07/27 14:18:04;;;;;;;3.43;1.13;;;;;;;;;;4975149;28;20410;-80
2022/07/27 14:20:30;;;;;;;1.10;1.10;;;;;;;;;;4974812;28;20437;-76
2022/07/27 14:22:56;;;;;;;1.23;1.10;;;;;;;;;;4974518;28;20422;-79
2022/07/27 14:25:23;;;;;;;2.50;1.30;;;;;;;;;;4974494;28;20484;-82
2022/07/27 14:27:49;;;;;;;2.97;1.17;;;;;;;;;;4973902;28;20699;-76
2022/07/27 14:30:16;;;;;;;1.10;1.00;;;;;;;;;;4974384;28;20434;-74
2022/07/27 14:32:42;;;;;;;10.87;2.50;;;;;;;;;;4974513;28;20492;-80
2022/07/27 14:35:08;;;;;;;2.53;2.07;;;;;;;;;;4974814;28;20485;-76
2022/07/27 14:37:34;;;;;;;5.13;1.57;;;;;;;;;;4974021;28;20434;-75
2022/07/27 14:40:00;;;;;;;9.40;1.50;;;;;;;;;;4987798;28;20529;-78
2022/07/27 14:42:27;;;;;;;1.23;1.20;;;;;;;;;;4973897;28;20480;-76
2022/07/27 14:44:53;;;;;;;1.20;1.07;;;;;;;;;;4974240;28;20492;-78
2022/07/27 14:47:19;;;;;;;1.17;1.17;;;;;;;;;;4974254;28;20449;-75
2022/07/27 14:49:45;;;;;;;1.10;1.10;;;;;;;;;;4974683;28;20517;-76